EGAC/BHD METAR and TAF weather

Enter ICAO airport designator
Station Type Date Time Source
EGAC METAR 2018/01/22 19:50 UTC NOAA

EGAC 221950Z AUTO 20011KT 9999 NCD 07/06 Q1010


Station Type Date Time Source
EGAC Decoded METAR 2018/01/22 19:50 UTC NOAA

Belfast / Harbour, United Kingdom (EGAC) 54-36N 005-53W 0M
Jan 22, 2018 - 02:50 PM EST / 2018.01.22 1950 UTC
Wind: from the SSW (200 degrees) at 13 MPH (11 KT):0
Visibility: greater than 7 mile(s):0
Temperature: 44 F (7 C)
Dew Point: 42 F (6 C)
Relative Humidity: 93%
Pressure (altimeter): 29.83 in. Hg (1010 hPa)
ob: EGAC 221950Z AUTO 20011KT 9999 NCD 07/06 Q1010
cycle: 20

Station Type Date Time Source
EGAC TAF UTC NOAA

Error!


Example: see airport list